sensor_id;sensor_type;location;lat;lon;timestamp;P1;durP1;ratioP1;P2;durP2;ratioP2
15271;SDS011;7737;51.578;7.268;2023-09-12T00:01:09;4.22;;;3.80;;
15271;SDS011;7737;51.578;7.268;2023-09-12T00:03:36;5.30;;;4.10;;
15271;SDS011;7737;51.578;7.268;2023-09-12T00:06:03;5.25;;;3.83;;
15271;SDS011;7737;51.578;7.268;2023-09-12T00:08:29;4.68;;;4.20;;
15271;SDS011;7737;51.578;7.268;2023-09-12T00:11:02;4.78;;;4.20;;
15271;SDS011;7737;51.578;7.268;2023-09-12T00:13:31;4.40;;;4.00;;
15271;SDS011;7737;51.578;7.268;2023-09-12T00:15:58;5.18;;;4.15;;
15271;SDS011;7737;51.578;7.268;2023-09-12T00:18:25;4.50;;;3.92;;
15271;SDS011;7737;51.578;7.268;2023-09-12T00:20:52;3.90;;;3.60;;
15271;SDS011;7737;51.578;7.268;2023-09-12T00:23:19;4.50;;;4.10;;
15271;SDS011;7737;51.578;7.268;2023-09-12T00:25:47;5.30;;;4.57;;
15271;SDS011;7737;51.578;7.268;2023-09-12T00:28:14;5.32;;;4.38;;
15271;SDS011;7737;51.578;7.268;2023-09-12T00:30:42;5.07;;;4.57;;
15271;SDS011;7737;51.578;7.268;2023-09-12T00:33:09;5.40;;;4.38;;
15271;SDS011;7737;51.578;7.268;2023-09-12T00:35:35;4.85;;;4.32;;
15271;SDS011;7737;51.578;7.268;2023-09-12T00:38:02;5.35;;;3.90;;
15271;SDS011;7737;51.578;7.268;2023-09-12T00:40:29;5.80;;;4.38;;
15271;SDS011;7737;51.578;7.268;2023-09-12T00:42:55;5.00;;;4.43;;
15271;SDS011;7737;51.578;7.268;2023-09-12T00:45:22;4.50;;;4.10;;
15271;SDS011;7737;51.578;7.268;2023-09-12T00:47:50;4.40;;;4.00;;
15271;SDS011;7737;51.578;7.268;2023-09-12T00:50:18;5.55;;;4.32;;
15271;SDS011;7737;51.578;7.268;2023-09-12T00:52:46;5.05;;;4.55;;
15271;SDS011;7737;51.578;7.268;2023-09-12T00:55:14;5.65;;;4.80;;
15271;SDS011;7737;51.578;7.268;2023-09-12T00:57:40;7.75;;;5.13;;
15271;SDS011;7737;51.578;7.268;2023-09-12T01:00:08;6.30;;;5.80;;
15271;SDS011;7737;51.578;7.268;2023-09-12T01:02:38;6.50;;;5.90;;
15271;SDS011;7737;51.578;7.268;2023-09-12T01:05:07;6.78;;;6.13;;
15271;SDS011;7737;51.578;7.268;2023-09-12T01:07:35;6.25;;;5.65;;
15271;SDS011;7737;51.578;7.268;2023-09-12T01:10:03;7.05;;;6.30;;
15271;SDS011;7737;51.578;7.268;2023-09-12T01:12:30;8.57;;;7.78;;
15271;SDS011;7737;51.578;7.268;2023-09-12T01:14:56;9.23;;;6.70;;
15271;SDS011;7737;51.578;7.268;2023-09-12T01:17:23;7.57;;;6.88;;
15271;SDS011;7737;51.578;7.268;2023-09-12T01:19:50;8.50;;;7.70;;
15271;SDS011;7737;51.578;7.268;2023-09-12T01:22:33;9.23;;;7.32;;
15271;SDS011;7737;51.578;7.268;2023-09-12T01:25:34;9.07;;;8.23;;
15271;SDS011;7737;51.578;7.268;2023-09-12T01:28:18;14.38;;;10.93;;
15271;SDS011;7737;51.578;7.268;2023-09-12T01:30:49;15.18;;;13.60;;
15271;SDS011;7737;51.578;7.268;2023-09-12T01:33:18;16.65;;;13.80;;
15271;SDS011;7737;51.578;7.268;2023-09-12T01:35:45;15.30;;;13.60;;
15271;SDS011;7737;51.578;7.268;2023-09-12T01:38:12;15.95;;;14.35;;
15271;SDS011;7737;51.578;7.268;2023-09-12T01:40:42;17.02;;;15.32;;
15271;SDS011;7737;51.578;7.268;2023-09-12T01:43:10;15.77;;;14.38;;
15271;SDS011;7737;51.578;7.268;2023-09-12T01:45:40;16.27;;;14.68;;
15271;SDS011;7737;51.578;7.268;2023-09-12T01:48:08;14.88;;;13.57;;
15271;SDS011;7737;51.578;7.268;2023-09-12T01:50:34;16.15;;;14.55;;
15271;SDS011;7737;51.578;7.268;2023-09-12T01:53:03;14.68;;;13.32;;
15271;SDS011;7737;51.578;7.268;2023-09-12T01:55:30;15.38;;;13.77;;
15271;SDS011;7737;51.578;7.268;2023-09-12T01:57:57;15.93;;;14.43;;
15271;SDS011;7737;51.578;7.268;2023-09-12T02:00:24;16.65;;;14.73;;
15271;SDS011;7737;51.578;7.268;2023-09-12T02:02:52;16.75;;;14.75;;
15271;SDS011;7737;51.578;7.268;2023-09-12T02:05:20;15.95;;;14.35;;
15271;SDS011;7737;51.578;7.268;2023-09-12T02:07:47;15.00;;;13.50;;
15271;SDS011;7737;51.578;7.268;2023-09-12T02:10:14;15.77;;;13.02;;
15271;SDS011;7737;51.578;7.268;2023-09-12T02:12:41;15.30;;;13.80;;
15271;SDS011;7737;51.578;7.268;2023-09-12T02:15:08;17.98;;;14.40;;
15271;SDS011;7737;51.578;7.268;2023-09-12T02:17:35;16.52;;;14.82;;
15271;SDS011;7737;51.578;7.268;2023-09-12T02:20:05;16.88;;;15.27;;
15271;SDS011;7737;51.578;7.268;2023-09-12T02:22:33;17.67;;;15.88;;
15271;SDS011;7737;51.578;7.268;2023-09-12T02:24:59;17.00;;;15.20;;
15271;SDS011;7737;51.578;7.268;2023-09-12T02:27:26;15.73;;;14.00;;
15271;SDS011;7737;51.578;7.268;2023-09-12T02:29:52;16.23;;;14.68;;
15271;SDS011;7737;51.578;7.268;2023-09-12T02:32:20;16.77;;;15.15;;
15271;SDS011;7737;51.578;7.268;2023-09-12T02:34:46;16.90;;;15.05;;
15271;SDS011;7737;51.578;7.268;2023-09-12T02:37:14;16.83;;;15.23;;
15271;SDS011;7737;51.578;7.268;2023-09-12T02:39:41;18.45;;;16.65;;
15271;SDS011;7737;51.578;7.268;2023-09-12T02:42:08;19.15;;;17.23;;
15271;SDS011;7737;51.578;7.268;2023-09-12T02:44:34;18.20;;;16.50;;
15271;SDS011;7737;51.578;7.268;2023-09-12T02:47:01;18.17;;;16.25;;
15271;SDS011;7737;51.578;7.268;2023-09-12T02:49:27;18.55;;;16.67;;
15271;SDS011;7737;51.578;7.268;2023-09-12T02:51:54;20.27;;;18.17;;
15271;SDS011;7737;51.578;7.268;2023-09-12T02:54:22;21.02;;;18.92;;
15271;SDS011;7737;51.578;7.268;2023-09-12T02:56:48;22.88;;;19.15;;
15271;SDS011;7737;51.578;7.268;2023-09-12T02:59:15;21.27;;;18.20;;
15271;SDS011;7737;51.578;7.268;2023-09-12T03:01:41;20.65;;;18.45;;
15271;SDS011;7737;51.578;7.268;2023-09-12T03:04:08;19.40;;;17.35;;
15271;SDS011;7737;51.578;7.268;2023-09-12T03:06:34;21.35;;;19.23;;
15271;SDS011;7737;51.578;7.268;2023-09-12T03:09:01;20.50;;;18.50;;
15271;SDS011;7737;51.578;7.268;2023-09-12T03:11:30;20.95;;;18.85;;
15271;SDS011;7737;51.578;7.268;2023-09-12T03:13:56;21.95;;;19.65;;
15271;SDS011;7737;51.578;7.268;2023-09-12T03:16:23;21.55;;;19.35;;
15271;SDS011;7737;51.578;7.268;2023-09-12T03:18:50;20.98;;;18.90;;
15271;SDS011;7737;51.578;7.268;2023-09-12T03:21:16;21.55;;;19.20;;
15271;SDS011;7737;51.578;7.268;2023-09-12T03:23:43;25.33;;;20.58;;
15271;SDS011;7737;51.578;7.268;2023-09-12T03:26:09;24.55;;;21.33;;
15271;SDS011;7737;51.578;7.268;2023-09-12T03:28:37;24.95;;;21.70;;
15271;SDS011;7737;51.578;7.268;2023-09-12T03:31:05;24.02;;;21.13;;
15271;SDS011;7737;51.578;7.268;2023-09-12T03:33:33;23.80;;;21.35;;
15271;SDS011;7737;51.578;7.268;2023-09-12T03:35:59;23.67;;;21.20;;
15271;SDS011;7737;51.578;7.268;2023-09-12T03:38:26;25.63;;;21.75;;
15271;SDS011;7737;51.578;7.268;2023-09-12T03:40:52;24.55;;;20.48;;
15271;SDS011;7737;51.578;7.268;2023-09-12T03:43:19;24.80;;;19.00;;
15271;SDS011;7737;51.578;7.268;2023-09-12T03:45:47;26.30;;;20.92;;
15271;SDS011;7737;51.578;7.268;2023-09-12T03:48:14;23.08;;;20.67;;
15271;SDS011;7737;51.578;7.268;2023-09-12T03:50:40;22.60;;;19.52;;
15271;SDS011;7737;51.578;7.268;2023-09-12T03:53:06;23.48;;;20.75;;
15271;SDS011;7737;51.578;7.268;2023-09-12T03:55:33;23.42;;;20.90;;
15271;SDS011;7737;51.578;7.268;2023-09-12T03:57:59;24.67;;;21.52;;
15271;SDS011;7737;51.578;7.268;2023-09-12T04:00:26;27.02;;;21.42;;
15271;SDS011;7737;51.578;7.268;2023-09-12T04:02:54;22.33;;;20.02;;
15271;SDS011;7737;51.578;7.268;2023-09-12T04:05:21;25.05;;;21.33;;
15271;SDS011;7737;51.578;7.268;2023-09-12T04:07:48;23.10;;;20.38;;
15271;SDS011;7737;51.578;7.268;2023-09-12T04:10:14;22.65;;;20.25;;
15271;SDS011;7737;51.578;7.268;2023-09-12T04:12:43;21.80;;;19.60;;
15271;SDS011;7737;51.578;7.268;2023-09-12T04:15:09;22.90;;;20.52;;
15271;SDS011;7737;51.578;7.268;2023-09-12T04:17:36;21.98;;;19.60;;
15271;SDS011;7737;51.578;7.268;2023-09-12T04:20:04;21.75;;;19.35;;
15271;SDS011;7737;51.578;7.268;2023-09-12T04:22:32;22.08;;;19.90;;
15271;SDS011;7737;51.578;7.268;2023-09-12T04:24:59;21.95;;;19.73;;
15271;SDS011;7737;51.578;7.268;2023-09-12T04:27:25;20.33;;;18.27;;
15271;SDS011;7737;51.578;7.268;2023-09-12T04:29:52;19.63;;;17.63;;
15271;SDS011;7737;51.578;7.268;2023-09-12T04:32:18;31.23;;;27.98;;
15271;SDS011;7737;51.578;7.268;2023-09-12T04:34:48;22.40;;;19.63;;
15271;SDS011;7737;51.578;7.268;2023-09-12T04:37:16;23.00;;;20.60;;
15271;SDS011;7737;51.578;7.268;2023-09-12T04:39:42;23.08;;;20.67;;
15271;SDS011;7737;51.578;7.268;2023-09-12T04:42:09;24.10;;;21.70;;
15271;SDS011;7737;51.578;7.268;2023-09-12T04:44:36;23.83;;;21.45;;
15271;SDS011;7737;51.578;7.268;2023-09-12T04:47:03;23.58;;;20.90;;
15271;SDS011;7737;51.578;7.268;2023-09-12T04:49:29;24.85;;;22.02;;
15271;SDS011;7737;51.578;7.268;2023-09-12T04:51:56;25.45;;;22.70;;
15271;SDS011;7737;51.578;7.268;2023-09-12T04:54:24;24.40;;;21.65;;
15271;SDS011;7737;51.578;7.268;2023-09-12T04:56:51;24.27;;;21.65;;
15271;SDS011;7737;51.578;7.268;2023-09-12T04:59:18;23.95;;;21.38;;
15271;SDS011;7737;51.578;7.268;2023-09-12T05:01:44;24.17;;;21.65;;
15271;SDS011;7737;51.578;7.268;2023-09-12T05:04:11;24.63;;;21.98;;
15271;SDS011;7737;51.578;7.268;2023-09-12T05:06:37;22.45;;;20.10;;
15271;SDS011;7737;51.578;7.268;2023-09-12T05:09:05;22.52;;;20.15;;
15271;SDS011;7737;51.578;7.268;2023-09-12T05:11:35;22.52;;;20.23;;
15271;SDS011;7737;51.578;7.268;2023-09-12T05:14:01;23.30;;;20.90;;
15271;SDS011;7737;51.578;7.268;2023-09-12T05:16:28;25.08;;;20.77;;
15271;SDS011;7737;51.578;7.268;2023-09-12T05:18:55;23.27;;;19.83;;
15271;SDS011;7737;51.578;7.268;2023-09-12T05:21:22;21.33;;;19.05;;
15271;SDS011;7737;51.578;7.268;2023-09-12T05:23:48;21.15;;;18.95;;
15271;SDS011;7737;51.578;7.268;2023-09-12T05:26:15;23.88;;;21.23;;
15271;SDS011;7737;51.578;7.268;2023-09-12T05:28:43;22.73;;;20.38;;
15271;SDS011;7737;51.578;7.268;2023-09-12T05:31:09;22.73;;;20.42;;
15271;SDS011;7737;51.578;7.268;2023-09-12T05:33:36;21.80;;;19.52;;
15271;SDS011;7737;51.578;7.268;2023-09-12T05:36:03;24.45;;;20.45;;
15271;SDS011;7737;51.578;7.268;2023-09-12T05:38:30;22.73;;;20.33;;
15271;SDS011;7737;51.578;7.268;2023-09-12T05:40:56;23.10;;;20.65;;
15271;SDS011;7737;51.578;7.268;2023-09-12T05:43:23;26.90;;;21.65;;
15271;SDS011;7737;51.578;7.268;2023-09-12T05:45:51;21.63;;;19.33;;
15271;SDS011;7737;51.578;7.268;2023-09-12T05:48:18;23.48;;;20.55;;
15271;SDS011;7737;51.578;7.268;2023-09-12T05:50:44;27.02;;;21.83;;
15271;SDS011;7737;51.578;7.268;2023-09-12T05:53:11;31.33;;;23.50;;
15271;SDS011;7737;51.578;7.268;2023-09-12T05:55:37;30.20;;;24.13;;
15271;SDS011;7737;51.578;7.268;2023-09-12T05:58:04;33.45;;;24.17;;
15271;SDS011;7737;51.578;7.268;2023-09-12T06:00:31;33.47;;;25.25;;
15271;SDS011;7737;51.578;7.268;2023-09-12T06:02:59;30.27;;;23.40;;
15271;SDS011;7737;51.578;7.268;2023-09-12T06:05:26;30.30;;;23.88;;
15271;SDS011;7737;51.578;7.268;2023-09-12T06:07:52;29.77;;;23.48;;
15271;SDS011;7737;51.578;7.268;2023-09-12T06:10:19;27.80;;;23.27;;
15271;SDS011;7737;51.578;7.268;2023-09-12T06:12:45;29.92;;;23.75;;
15271;SDS011;7737;51.578;7.268;2023-09-12T06:15:12;28.42;;;22.77;;
15271;SDS011;7737;51.578;7.268;2023-09-12T06:17:38;30.77;;;23.33;;
15271;SDS011;7737;51.578;7.268;2023-09-12T06:20:07;31.00;;;22.35;;
15271;SDS011;7737;51.578;7.268;2023-09-12T06:22:34;31.92;;;24.75;;
15271;SDS011;7737;51.578;7.268;2023-09-12T06:25:00;30.23;;;24.65;;
15271;SDS011;7737;51.578;7.268;2023-09-12T06:27:28;29.27;;;24.42;;
15271;SDS011;7737;51.578;7.268;2023-09-12T06:29:56;33.00;;;25.15;;
15271;SDS011;7737;51.578;7.268;2023-09-12T06:32:22;30.33;;;24.73;;
15271;SDS011;7737;51.578;7.268;2023-09-12T06:34:49;26.20;;;22.63;;
15271;SDS011;7737;51.578;7.268;2023-09-12T06:37:17;27.02;;;23.10;;
15271;SDS011;7737;51.578;7.268;2023-09-12T06:39:43;22.45;;;19.27;;
15271;SDS011;7737;51.578;7.268;2023-09-12T06:42:10;27.02;;;22.02;;
15271;SDS011;7737;51.578;7.268;2023-09-12T06:44:38;28.45;;;23.20;;
15271;SDS011;7737;51.578;7.268;2023-09-12T06:47:04;27.02;;;22.70;;
15271;SDS011;7737;51.578;7.268;2023-09-12T06:49:31;29.30;;;23.77;;
15271;SDS011;7737;51.578;7.268;2023-09-12T06:51:58;26.20;;;23.38;;
15271;SDS011;7737;51.578;7.268;2023-09-12T06:54:26;28.25;;;24.05;;
15271;SDS011;7737;51.578;7.268;2023-09-12T06:56:53;28.98;;;24.60;;
15271;SDS011;7737;51.578;7.268;2023-09-12T06:59:19;31.52;;;24.73;;
15271;SDS011;7737;51.578;7.268;2023-09-12T07:01:46;49.42;;;28.42;;
15271;SDS011;7737;51.578;7.268;2023-09-12T07:04:12;44.97;;;27.17;;
15271;SDS011;7737;51.578;7.268;2023-09-12T07:06:39;34.88;;;25.67;;
15271;SDS011;7737;51.578;7.268;2023-09-12T07:09:05;32.38;;;25.80;;
15271;SDS011;7737;51.578;7.268;2023-09-12T07:11:35;31.27;;;25.55;;
15271;SDS011;7737;51.578;7.268;2023-09-12T07:14:01;28.67;;;24.65;;
15271;SDS011;7737;51.578;7.268;2023-09-12T07:16:28;28.35;;;24.33;;
15271;SDS011;7737;51.578;7.268;2023-09-12T07:18:56;32.00;;;25.38;;
15271;SDS011;7737;51.578;7.268;2023-09-12T07:21:22;30.00;;;24.98;;
15271;SDS011;7737;51.578;7.268;2023-09-12T07:23:49;26.15;;;21.40;;
15271;SDS011;7737;51.578;7.268;2023-09-12T07:26:16;24.58;;;21.52;;
15271;SDS011;7737;51.578;7.268;2023-09-12T07:28:44;33.72;;;25.23;;
15271;SDS011;7737;51.578;7.268;2023-09-12T07:31:10;31.77;;;24.40;;
15271;SDS011;7737;51.578;7.268;2023-09-12T07:33:37;42.17;;;27.80;;
15271;SDS011;7737;51.578;7.268;2023-09-12T07:36:04;36.67;;;25.42;;
15271;SDS011;7737;51.578;7.268;2023-09-12T07:38:30;36.38;;;26.63;;
15271;SDS011;7737;51.578;7.268;2023-09-12T07:40:57;33.67;;;25.67;;
15271;SDS011;7737;51.578;7.268;2023-09-12T07:43:25;34.00;;;26.45;;
15271;SDS011;7737;51.578;7.268;2023-09-12T07:45:55;33.28;;;26.00;;
15271;SDS011;7737;51.578;7.268;2023-09-12T07:48:22;32.25;;;24.70;;
15271;SDS011;7737;51.578;7.268;2023-09-12T07:50:49;31.60;;;25.52;;
15271;SDS011;7737;51.578;7.268;2023-09-12T07:53:16;38.42;;;26.63;;
15271;SDS011;7737;51.578;7.268;2023-09-12T07:55:43;34.95;;;25.08;;
15271;SDS011;7737;51.578;7.268;2023-09-12T07:58:11;31.88;;;25.70;;
15271;SDS011;7737;51.578;7.268;2023-09-12T08:00:38;31.23;;;24.83;;
15271;SDS011;7737;51.578;7.268;2023-09-12T08:03:06;33.08;;;25.92;;
15271;SDS011;7737;51.578;7.268;2023-09-12T08:05:33;34.55;;;26.80;;
15271;SDS011;7737;51.578;7.268;2023-09-12T08:07:59;28.15;;;24.17;;
15271;SDS011;7737;51.578;7.268;2023-09-12T08:10:26;28.38;;;24.33;;
15271;SDS011;7737;51.578;7.268;2023-09-12T08:12:53;26.55;;;21.83;;
15271;SDS011;7737;51.578;7.268;2023-09-12T08:15:19;31.98;;;23.90;;
15271;SDS011;7737;51.578;7.268;2023-09-12T08:17:46;27.45;;;23.67;;
15271;SDS011;7737;51.578;7.268;2023-09-12T08:20:18;26.42;;;22.38;;
15271;SDS011;7737;51.578;7.268;2023-09-12T08:22:45;24.77;;;22.15;;
15271;SDS011;7737;51.578;7.268;2023-09-12T08:25:11;22.80;;;20.02;;
15271;SDS011;7737;51.578;7.268;2023-09-12T08:27:39;25.63;;;21.80;;
15271;SDS011;7737;51.578;7.268;2023-09-12T08:30:07;24.60;;;20.90;;
15271;SDS011;7737;51.578;7.268;2023-09-12T08:32:34;21.30;;;19.00;;
15271;SDS011;7737;51.578;7.268;2023-09-12T08:35:01;20.50;;;18.40;;
15271;SDS011;7737;51.578;7.268;2023-09-12T08:37:30;20.90;;;17.52;;
15271;SDS011;7737;51.578;7.268;2023-09-12T08:39:56;18.48;;;16.02;;
15271;SDS011;7737;51.578;7.268;2023-09-12T08:42:24;16.33;;;14.65;;
15271;SDS011;7737;51.578;7.268;2023-09-12T08:44:53;16.65;;;14.23;;
15271;SDS011;7737;51.578;7.268;2023-09-12T08:47:19;17.15;;;14.27;;
15271;SDS011;7737;51.578;7.268;2023-09-12T08:49:48;16.25;;;14.52;;
15271;SDS011;7737;51.578;7.268;2023-09-12T08:52:15;13.07;;;10.85;;
15271;SDS011;7737;51.578;7.268;2023-09-12T08:54:43;12.55;;;10.05;;
15271;SDS011;7737;51.578;7.268;2023-09-12T08:57:09;8.70;;;7.80;;
15271;SDS011;7737;51.578;7.268;2023-09-12T08:59:38;8.57;;;7.68;;
15271;SDS011;7737;51.578;7.268;2023-09-12T09:02:07;6.93;;;6.28;;
15271;SDS011;7737;51.578;7.268;2023-09-12T09:04:35;8.57;;;6.65;;
15271;SDS011;7737;51.578;7.268;2023-09-12T09:07:03;7.00;;;6.30;;
15271;SDS011;7737;51.578;7.268;2023-09-12T09:09:30;6.30;;;5.80;;
15271;SDS011;7737;51.578;7.268;2023-09-12T09:11:59;7.88;;;6.78;;
15271;SDS011;7737;51.578;7.268;2023-09-12T09:14:26;8.13;;;7.38;;
15271;SDS011;7737;51.578;7.268;2023-09-12T09:16:52;8.13;;;6.88;;
15271;SDS011;7737;51.578;7.268;2023-09-12T09:19:20;6.82;;;6.13;;
15271;SDS011;7737;51.578;7.268;2023-09-12T09:21:46;7.70;;;7.07;;
15271;SDS011;7737;51.578;7.268;2023-09-12T09:24:13;9.13;;;7.15;;
15271;SDS011;7737;51.578;7.268;2023-09-12T09:26:42;6.32;;;5.72;;
15271;SDS011;7737;51.578;7.268;2023-09-12T09:29:13;8.02;;;7.22;;
15271;SDS011;7737;51.578;7.268;2023-09-12T09:31:40;6.85;;;6.25;;
15271;SDS011;7737;51.578;7.268;2023-09-12T09:34:11;6.05;;;5.00;;
15271;SDS011;7737;51.578;7.268;2023-09-12T09:36:42;5.25;;;4.85;;
15271;SDS011;7737;51.578;7.268;2023-09-12T09:39:09;5.63;;;5.03;;
15271;SDS011;7737;51.578;7.268;2023-09-12T09:41:36;6.10;;;5.60;;
15271;SDS011;7737;51.578;7.268;2023-09-12T09:44:04;4.70;;;4.30;;
15271;SDS011;7737;51.578;7.268;2023-09-12T09:46:32;4.13;;;3.83;;
15271;SDS011;7737;51.578;7.268;2023-09-12T09:48:59;4.28;;;3.88;;
15271;SDS011;7737;51.578;7.268;2023-09-12T09:51:26;4.30;;;3.80;;
15271;SDS011;7737;51.578;7.268;2023-09-12T09:53:52;3.55;;;3.22;;
15271;SDS011;7737;51.578;7.268;2023-09-12T09:56:23;3.10;;;2.80;;
15271;SDS011;7737;51.578;7.268;2023-09-12T09:58:52;3.53;;;3.33;;
15271;SDS011;7737;51.578;7.268;2023-09-12T10:01:20;4.18;;;3.47;;
15271;SDS011;7737;51.578;7.268;2023-09-12T10:03:49;3.80;;;3.50;;
15271;SDS011;7737;51.578;7.268;2023-09-12T10:06:17;3.67;;;3.38;;
15271;SDS011;7737;51.578;7.268;2023-09-12T10:08:45;3.35;;;2.90;;
15271;SDS011;7737;51.578;7.268;2023-09-12T10:11:17;3.70;;;3.40;;
15271;SDS011;7737;51.578;7.268;2023-09-12T10:13:48;3.50;;;3.20;;
15271;SDS011;7737;51.578;7.268;2023-09-12T10:16:19;3.67;;;3.38;;
15271;SDS011;7737;51.578;7.268;2023-09-12T10:18:55;3.60;;;3.22;;
15271;SDS011;7737;51.578;7.268;2023-09-12T10:21:27;4.35;;;3.70;;
15271;SDS011;7737;51.578;7.268;2023-09-12T10:23:55;5.93;;;4.50;;
15271;SDS011;7737;51.578;7.268;2023-09-12T10:26:24;5.35;;;4.90;;
15271;SDS011;7737;51.578;7.268;2023-09-12T10:28:51;4.55;;;4.20;;
15271;SDS011;7737;51.578;7.268;2023-09-12T10:31:18;4.80;;;4.40;;
15271;SDS011;7737;51.578;7.268;2023-09-12T10:33:45;4.80;;;4.40;;
15271;SDS011;7737;51.578;7.268;2023-09-12T10:36:15;4.82;;;4.35;;
15271;SDS011;7737;51.578;7.268;2023-09-12T10:38:44;6.03;;;4.40;;
15271;SDS011;7737;51.578;7.268;2023-09-12T10:41:14;4.20;;;3.80;;
15271;SDS011;7737;51.578;7.268;2023-09-12T10:43:45;3.75;;;3.45;;
15271;SDS011;7737;51.578;7.268;2023-09-12T10:46:17;4.53;;;3.58;;
15271;SDS011;7737;51.578;7.268;2023-09-12T10:48:44;4.97;;;3.85;;
15271;SDS011;7737;51.578;7.268;2023-09-12T10:51:11;5.50;;;4.25;;
15271;SDS011;7737;51.578;7.268;2023-09-12T10:53:40;4.68;;;4.28;;
15271;SDS011;7737;51.578;7.268;2023-09-12T10:56:14;5.50;;;4.95;;
15271;SDS011;7737;51.578;7.268;2023-09-12T11:01:40;5.35;;;4.57;;
15271;SDS011;7737;51.578;7.268;2023-09-12T11:06:59;6.75;;;5.32;;
15271;SDS011;7737;51.578;7.268;2023-09-12T11:09:27;5.85;;;5.32;;
15271;SDS011;7737;51.578;7.268;2023-09-12T11:11:55;5.55;;;5.05;;
15271;SDS011;7737;51.578;7.268;2023-09-12T11:14:24;7.22;;;6.22;;
15271;SDS011;7737;51.578;7.268;2023-09-12T11:19:49;7.10;;;6.50;;
15271;SDS011;7737;51.578;7.268;2023-09-12T11:22:21;6.50;;;5.90;;
15271;SDS011;7737;51.578;7.268;2023-09-12T11:24:51;6.85;;;5.95;;
15271;SDS011;7737;51.578;7.268;2023-09-12T11:27:18;7.00;;;6.30;;
15271;SDS011;7737;51.578;7.268;2023-09-12T11:29:45;8.10;;;7.30;;
15271;SDS011;7737;51.578;7.268;2023-09-12T11:32:23;8.90;;;8.10;;
15271;SDS011;7737;51.578;7.268;2023-09-12T11:34:52;8.63;;;7.80;;
15271;SDS011;7737;51.578;7.268;2023-09-12T11:37:22;8.45;;;7.75;;
15271;SDS011;7737;51.578;7.268;2023-09-12T11:39:49;9.48;;;8.68;;
15271;SDS011;7737;51.578;7.268;2023-09-12T11:42:19;8.93;;;8.13;;
15271;SDS011;7737;51.578;7.268;2023-09-12T11:44:48;10.00;;;9.02;;
15271;SDS011;7737;51.578;7.268;2023-09-12T11:47:15;8.75;;;7.95;;
15271;SDS011;7737;51.578;7.268;2023-09-12T11:49:42;9.10;;;8.40;;
15271;SDS011;7737;51.578;7.268;2023-09-12T11:52:09;7.20;;;6.60;;
15271;SDS011;7737;51.578;7.268;2023-09-12T11:54:37;8.32;;;7.63;;
15271;SDS011;7737;51.578;7.268;2023-09-12T11:57:05;9.43;;;8.63;;
15271;SDS011;7737;51.578;7.268;2023-09-12T11:59:37;8.20;;;7.50;;
15271;SDS011;7737;51.578;7.268;2023-09-12T12:02:06;8.20;;;7.40;;
15271;SDS011;7737;51.578;7.268;2023-09-12T12:04:33;8.10;;;7.40;;
15271;SDS011;7737;51.578;7.268;2023-09-12T12:07:00;8.40;;;7.70;;
15271;SDS011;7737;51.578;7.268;2023-09-12T12:09:28;8.88;;;8.15;;
15271;SDS011;7737;51.578;7.268;2023-09-12T12:11:54;8.18;;;7.57;;
15271;SDS011;7737;51.578;7.268;2023-09-12T12:14:25;8.50;;;7.70;;
15271;SDS011;7737;51.578;7.268;2023-09-12T12:16:53;8.13;;;7.47;;
15271;SDS011;7737;51.578;7.268;2023-09-12T12:19:21;9.07;;;8.27;;
15271;SDS011;7737;51.578;7.268;2023-09-12T12:21:48;10.75;;;9.75;;
15271;SDS011;7737;51.578;7.268;2023-09-12T12:24:14;9.82;;;8.93;;
15271;SDS011;7737;51.578;7.268;2023-09-12T12:26:42;10.32;;;9.32;;
15271;SDS011;7737;51.578;7.268;2023-09-12T12:29:09;9.73;;;8.93;;
15271;SDS011;7737;51.578;7.268;2023-09-12T12:31:36;9.32;;;8.52;;
15271;SDS011;7737;51.578;7.268;2023-09-12T12:34:04;10.23;;;9.30;;
15271;SDS011;7737;51.578;7.268;2023-09-12T12:36:32;9.57;;;8.68;;
15271;SDS011;7737;51.578;7.268;2023-09-12T12:38:58;8.77;;;8.07;;
15271;SDS011;7737;51.578;7.268;2023-09-12T12:41:25;13.68;;;12.52;;
15271;SDS011;7737;51.578;7.268;2023-09-12T12:43:53;8.88;;;8.18;;
15271;SDS011;7737;51.578;7.268;2023-09-12T12:46:24;9.45;;;8.65;;
15271;SDS011;7737;51.578;7.268;2023-09-12T12:48:51;9.68;;;8.75;;
15271;SDS011;7737;51.578;7.268;2023-09-12T12:51:19;9.57;;;8.75;;
15271;SDS011;7737;51.578;7.268;2023-09-12T12:53:48;9.18;;;8.45;;
15271;SDS011;7737;51.578;7.268;2023-09-12T12:56:16;9.25;;;8.45;;
15271;SDS011;7737;51.578;7.268;2023-09-12T12:58:48;8.05;;;7.43;;
15271;SDS011;7737;51.578;7.268;2023-09-12T13:01:15;9.10;;;8.30;;
15271;SDS011;7737;51.578;7.268;2023-09-12T13:03:42;7.68;;;6.97;;
15271;SDS011;7737;51.578;7.268;2023-09-12T13:06:10;7.68;;;7.05;;
15271;SDS011;7737;51.578;7.268;2023-09-12T13:08:41;8.20;;;7.40;;
15271;SDS011;7737;51.578;7.268;2023-09-12T13:11:08;7.40;;;6.80;;
15271;SDS011;7737;51.578;7.268;2023-09-12T13:13:35;7.65;;;6.95;;
15271;SDS011;7737;51.578;7.268;2023-09-12T13:16:02;6.70;;;6.10;;
15271;SDS011;7737;51.578;7.268;2023-09-12T13:18:30;6.55;;;5.80;;
15271;SDS011;7737;51.578;7.268;2023-09-12T13:20:57;5.97;;;5.53;;
15271;SDS011;7737;51.578;7.268;2023-09-12T13:23:23;6.13;;;5.60;;
15271;SDS011;7737;51.578;7.268;2023-09-12T13:25:51;6.30;;;5.78;;
15271;SDS011;7737;51.578;7.268;2023-09-12T13:28:18;5.68;;;5.05;;
15271;SDS011;7737;51.578;7.268;2023-09-12T13:30:45;4.78;;;4.20;;
15271;SDS011;7737;51.578;7.268;2023-09-12T13:33:11;5.05;;;4.60;;
15271;SDS011;7737;51.578;7.268;2023-09-12T13:35:40;6.40;;;4.97;;
15271;SDS011;7737;51.578;7.268;2023-09-12T13:38:07;5.68;;;5.28;;
15271;SDS011;7737;51.578;7.268;2023-09-12T13:40:35;5.90;;;5.30;;
15271;SDS011;7737;51.578;7.268;2023-09-12T13:43:04;5.90;;;5.40;;
15271;SDS011;7737;51.578;7.268;2023-09-12T13:45:31;5.65;;;5.00;;
15271;SDS011;7737;51.578;7.268;2023-09-12T13:47:58;5.13;;;4.38;;
15271;SDS011;7737;51.578;7.268;2023-09-12T13:50:25;6.10;;;4.55;;
15271;SDS011;7737;51.578;7.268;2023-09-12T13:52:53;4.60;;;4.20;;
15271;SDS011;7737;51.578;7.268;2023-09-12T13:55:21;5.32;;;4.82;;
15271;SDS011;7737;51.578;7.268;2023-09-12T13:57:47;5.72;;;5.03;;
15271;SDS011;7737;51.578;7.268;2023-09-12T14:00:15;6.18;;;4.90;;
15271;SDS011;7737;51.578;7.268;2023-09-12T14:02:42;5.70;;;5.20;;
15271;SDS011;7737;51.578;7.268;2023-09-12T14:05:09;5.40;;;4.90;;
15271;SDS011;7737;51.578;7.268;2023-09-12T14:07:36;5.43;;;4.93;;
15271;SDS011;7737;51.578;7.268;2023-09-12T14:10:04;4.85;;;4.45;;
15271;SDS011;7737;51.578;7.268;2023-09-12T14:12:32;5.15;;;4.65;;
15271;SDS011;7737;51.578;7.268;2023-09-12T14:14:58;5.35;;;4.82;;
15271;SDS011;7737;51.578;7.268;2023-09-12T14:17:26;5.00;;;4.60;;
15271;SDS011;7737;51.578;7.268;2023-09-12T14:19:53;4.78;;;4.40;;
15271;SDS011;7737;51.578;7.268;2023-09-12T14:22:20;5.25;;;4.68;;
15271;SDS011;7737;51.578;7.268;2023-09-12T14:24:47;6.78;;;5.28;;
15271;SDS011;7737;51.578;7.268;2023-09-12T14:27:14;5.18;;;4.78;;
15271;SDS011;7737;51.578;7.268;2023-09-12T14:29:40;5.88;;;5.18;;
15271;SDS011;7737;51.578;7.268;2023-09-12T14:32:10;5.50;;;5.10;;
15271;SDS011;7737;51.578;7.268;2023-09-12T14:34:38;5.93;;;5.38;;
15271;SDS011;7737;51.578;7.268;2023-09-12T14:37:05;7.05;;;6.45;;
15271;SDS011;7737;51.578;7.268;2023-09-12T14:39:31;8.52;;;5.20;;
15271;SDS011;7737;51.578;7.268;2023-09-12T14:41:58;6.63;;;5.95;;
15271;SDS011;7737;51.578;7.268;2023-09-12T14:44:26;6.85;;;6.20;;
15271;SDS011;7737;51.578;7.268;2023-09-12T14:46:53;5.85;;;5.35;;
15271;SDS011;7737;51.578;7.268;2023-09-12T14:49:20;6.38;;;5.68;;
15271;SDS011;7737;51.578;7.268;2023-09-12T14:51:48;5.80;;;5.15;;
15271;SDS011;7737;51.578;7.268;2023-09-12T14:54:15;5.60;;;5.07;;
15271;SDS011;7737;51.578;7.268;2023-09-12T14:56:41;6.60;;;6.00;;
15271;SDS011;7737;51.578;7.268;2023-09-12T14:59:08;7.32;;;5.72;;